ハノーファー の空港の天気 - METARとTAF

ハノーファー空港 ( EDDV / HAJ ) - ドイツ ハノーファー
飛行場実況気象(Metar)
観測時間07/18 15:50 CEST (07/18 13:50 UTC)
風向・風速不定 2m/s
視程10km以上
天気現象
なし
気温25℃
湿度36%
気圧1011hPa
METAREDDV 181350Z VRB04KT CAVOK 25/09 Q1011 NOSIG
過去の天気等 Google飛行場航空写真 Wunderground天気予報

過去48時間のMETAR

飛行場予報(TAF)
発表時間: 7/18 13:00 CEST (7/18 11:00 UTC)
予報対象時間: 18日14時 CEST ~ 19日14時 CEST
風向・風速不定 2m/s
視程10km以上
なし
19日3時 CEST ~ 19日5時 CEST に徐々に
風向・風速南西 3m/s
TAF EDDV 181100Z 1812/1912 VRB03KT CAVOK
BECMG 1901/1903 23006KT